Terminal Aerodrome Forecast
Issued by NWS Los Angeles, CA

Home | Current Version | Previous Version | Text Only | Print | Product List | Glossary On
Versions: 1 2 3 4 5 6 7 8 9 10 11 12 13 14 15 16 17 18 19 20 21 22 23 24 25 26 27 28 29 30 31 32 33 34 35
000
FTUS46 KLOX 111139
TAFSMX
TAF
KSMX 111139Z 1112/1212 VRB03KT 2SM BR VCSH BKN010 OVC025
      TEMPO 1112/1115 1/4SM FG VV010
     FM111700 32006KT 5SM -SHRA BR BKN012 OVC025
     FM112000 32011KT P6SM SCT012 BKN025
     FM120300 VRB03KT 5SM BR OVC050=

USA.gov is the U.S. government's official web portal to all federal, state and local government web resources and services.